Time;durP1;ratioP1;P1;durP2;ratioP2;P2;SDS_P1;SDS_P2;PMS_P1;PMS_P2;Temp;Humidity;BMP_temperature;BMP_pressure;BME280_temperature;BME280_humidity;BME280_pressure;Samples;Min_cycle;Max_cycle;Signal;HPM_P1;HPM_P2
2024/04/01 00:00:42;;;;;;;5.78;1.10;;;10.60;99.90;;;;;;4972506;28;20102;-68
2024/04/01 00:03:07;;;;;;;4.13;1.00;;;10.60;99.90;;;;;;4978933;28;20087;-68
2024/04/01 00:05:33;;;;;;;4.45;1.20;;;10.60;99.90;;;;;;4977440;28;20076;-68
2024/04/01 00:07:59;;;;;;;3.88;1.10;;;10.60;99.90;;;;;;4977379;28;20051;-68
2024/04/01 00:10:25;;;;;;;3.22;1.08;;;10.60;99.90;;;;;;4976323;28;20049;-68
2024/04/01 00:12:51;;;;;;;5.57;1.13;;;10.60;99.90;;;;;;4978455;28;20105;-67
2024/04/01 00:15:18;;;;;;;4.18;1.35;;;10.50;99.90;;;;;;4977345;28;20114;-67
2024/04/01 00:17:46;;;;;;;5.13;1.20;;;10.60;99.90;;;;;;4979233;28;20486;-67
2024/04/01 00:20:14;;;;;;;3.72;1.08;;;10.50;99.90;;;;;;4970242;28;20541;-67
2024/04/01 00:22:40;;;;;;;3.92;1.20;;;10.50;99.90;;;;;;4975377;28;20053;-67
2024/04/01 00:25:05;;;;;;;3.30;1.00;;;10.40;99.90;;;;;;4977179;28;20026;-67
2024/04/01 00:27:31;;;;;;;4.82;1.10;;;10.40;99.90;;;;;;4978686;28;20039;-67
2024/04/01 00:29:56;;;;;;;4.65;1.20;;;10.40;99.90;;;;;;4978551;28;20034;-68
2024/04/01 00:32:22;;;;;;;3.55;1.40;;;10.40;99.90;;;;;;4976204;28;20057;-67
2024/04/01 00:34:48;;;;;;;5.88;1.20;;;10.30;99.90;;;;;;4975051;28;20023;-67
2024/04/01 00:37:14;;;;;;;4.07;1.05;;;10.20;99.90;;;;;;4996973;28;20023;-67
2024/04/01 00:39:40;;;;;;;1.77;0.88;;;10.20;99.90;;;;;;4974311;28;20113;-67
2024/04/01 00:42:05;;;;;;;2.90;1.05;;;10.30;99.90;;;;;;4979807;28;20038;-67
2024/04/01 00:44:34;;;;;;;2.35;0.98;;;10.20;99.90;;;;;;4976768;28;20152;-67
2024/04/01 00:47:00;;;;;;;4.70;1.10;;;10.20;99.90;;;;;;4985870;28;20130;-68
2024/04/01 00:49:26;;;;;;;3.17;1.15;;;10.20;99.90;;;;;;4973491;28;20446;-67
2024/04/01 00:51:53;;;;;;;3.08;1.10;;;10.30;99.90;;;;;;4974419;28;20041;-67
2024/04/01 00:54:19;;;;;;;2.83;1.00;;;10.30;99.90;;;;;;4975644;28;20510;-68
2024/04/01 00:56:47;;;;;;;4.18;1.30;;;10.40;99.90;;;;;;4993306;28;20020;-68
2024/04/01 00:59:15;;;;;;;3.85;1.10;;;10.40;99.90;;;;;;4978301;28;20023;-68
2024/04/01 01:01:42;;;;;;;2.90;1.10;;;10.40;99.90;;;;;;4987064;28;20033;-68
2024/04/01 01:04:08;;;;;;;4.53;1.15;;;10.40;99.90;;;;;;4979693;28;20034;-68
2024/04/01 01:06:34;;;;;;;3.10;1.10;;;10.30;99.90;;;;;;4973842;28;20393;-67
2024/04/01 01:09:00;;;;;;;4.63;1.50;;;10.30;99.90;;;;;;4975769;28;20159;-67
2024/04/01 01:11:26;;;;;;;3.72;1.00;;;10.40;99.90;;;;;;4972260;28;20186;-67
2024/04/01 01:13:52;;;;;;;2.70;1.10;;;10.40;99.90;;;;;;5005296;28;20031;-67
2024/04/01 01:16:17;;;;;;;3.33;1.08;;;10.50;99.90;;;;;;4977937;28;20386;-67
2024/04/01 01:18:43;;;;;;;3.25;1.00;;;10.50;99.90;;;;;;4975625;28;20051;-67
2024/04/01 01:21:09;;;;;;;3.88;1.00;;;10.50;99.90;;;;;;4977453;28;20448;-67
2024/04/01 01:23:35;;;;;;;3.63;1.10;;;10.50;99.90;;;;;;4971697;28;20030;-67
2024/04/01 01:26:01;;;;;;;4.60;1.20;;;10.40;99.90;;;;;;4984312;28;20022;-68
2024/04/01 01:28:29;;;;;;;2.65;1.08;;;10.40;99.90;;;;;;4970394;28;20568;-67
2024/04/01 01:30:54;;;;;;;2.67;1.05;;;10.50;99.90;;;;;;4976065;28;20043;-67
2024/04/01 01:33:20;;;;;;;4.18;1.02;;;10.50;99.90;;;;;;4978216;28;20524;-67
2024/04/01 01:35:46;;;;;;;2.25;0.90;;;10.50;99.90;;;;;;4973241;28;20022;-67
2024/04/01 01:38:13;;;;;;;2.70;1.00;;;10.50;99.90;;;;;;4966729;28;20019;-67
2024/04/01 01:40:39;;;;;;;2.45;1.00;;;10.40;99.90;;;;;;4964944;28;20022;-68
2024/04/01 01:43:05;;;;;;;3.78;1.05;;;10.40;99.90;;;;;;4966831;28;20049;-68
2024/04/01 01:45:30;;;;;;;4.63;1.10;;;10.50;99.90;;;;;;4969451;28;20022;-68
2024/04/01 01:47:56;;;;;;;3.17;1.10;;;10.40;99.90;;;;;;4968740;28;20547;-67
2024/04/01 01:50:22;;;;;;;2.90;0.90;;;10.40;99.90;;;;;;4966964;28;20526;-67
2024/04/01 01:52:50;;;;;;;3.25;1.00;;;10.40;99.90;;;;;;4968501;28;20367;-67
2024/04/01 01:55:18;;;;;;;4.47;1.00;;;10.50;99.90;;;;;;4967942;28;20027;-67
2024/04/01 01:57:43;;;;;;;2.40;0.90;;;10.50;99.90;;;;;;4969078;28;20034;-67
2024/04/01 02:00:13;;;;;;;3.33;1.00;;;10.50;99.90;;;;;;4969416;28;20023;-67
2024/04/01 02:02:43;;;;;;;3.15;1.10;;;10.50;99.90;;;;;;4967247;28;20026;-67
2024/04/01 02:05:09;;;;;;;3.42;0.90;;;10.40;99.90;;;;;;4968625;28;20033;-67
2024/04/01 02:07:38;;;;;;;2.25;0.77;;;10.40;99.90;;;;;;4972787;28;20030;-67
2024/04/01 02:10:03;;;;;;;2.10;0.93;;;10.40;99.90;;;;;;4966740;28;20023;-68
2024/04/01 02:12:29;;;;;;;2.45;0.90;;;10.50;99.90;;;;;;4971134;28;20080;-67
2024/04/01 02:14:55;;;;;;;2.30;0.90;;;10.50;99.90;;;;;;4970574;28;20030;-67
2024/04/01 02:17:21;;;;;;;2.95;0.90;;;10.50;99.90;;;;;;4971997;28;20054;-68
2024/04/01 02:19:46;;;;;;;2.03;0.77;;;10.50;99.90;;;;;;4961558;28;20065;-68
2024/04/01 02:22:17;;;;;;;2.90;1.00;;;10.40;99.90;;;;;;4974245;28;20038;-68
2024/04/01 02:24:43;;;;;;;3.92;1.05;;;10.50;99.90;;;;;;4971849;28;20514;-67
2024/04/01 02:27:10;;;;;;;2.50;0.90;;;10.50;99.90;;;;;;4969793;28;20034;-67
2024/04/01 02:29:36;;;;;;;2.35;0.95;;;10.50;99.90;;;;;;4968975;28;20037;-67
2024/04/01 02:32:02;;;;;;;2.08;0.88;;;10.50;99.90;;;;;;4971716;28;20056;-67
2024/04/01 02:34:27;;;;;;;2.50;0.80;;;10.50;99.90;;;;;;4972695;28;20027;-68
2024/04/01 02:36:54;;;;;;;1.90;0.85;;;10.40;99.90;;;;;;4970474;28;20027;-68
2024/04/01 02:39:21;;;;;;;2.53;1.00;;;10.40;99.90;;;;;;4972412;28;20440;-68
2024/04/01 02:41:47;;;;;;;1.67;0.80;;;10.40;99.90;;;;;;4971716;28;20027;-68
2024/04/01 02:44:13;;;;;;;2.40;0.90;;;10.40;99.90;;;;;;4974657;28;20078;-68
2024/04/01 02:46:43;;;;;;;2.25;0.90;;;10.40;99.90;;;;;;4975133;28;20030;-68
2024/04/01 02:49:10;;;;;;;;;;;10.30;99.90;;;;;;4968931;28;20035;-68
2024/04/01 02:51:35;;;;;;;2.60;1.00;;;10.20;99.90;;;;;;4965978;28;19913;-68
2024/04/01 02:54:02;;;;;;;2.08;0.80;;;10.20;99.90;;;;;;4979891;28;20019;-68
2024/04/01 02:56:27;;;;;;;3.33;0.98;;;10.10;99.90;;;;;;4968273;28;20020;-67
2024/04/01 02:58:53;;;;;;;2.05;0.90;;;10.00;99.90;;;;;;4967531;28;20093;-68
2024/04/01 03:01:19;;;;;;;4.68;1.05;;;9.90;99.90;;;;;;4985518;28;20026;-68
2024/04/01 03:03:48;;;;;;;2.10;0.90;;;9.80;99.90;;;;;;4969888;28;20027;-68
2024/04/01 03:06:14;;;;;;;2.25;0.90;;;9.70;99.90;;;;;;4969740;28;20031;-68
2024/04/01 03:08:41;;;;;;;3.42;1.10;;;9.60;99.90;;;;;;4972422;28;20018;-68
2024/04/01 03:11:06;;;;;;;3.70;1.35;;;9.60;99.90;;;;;;4971131;28;20031;-68
2024/04/01 03:13:36;;;;;;;4.60;1.30;;;9.50;99.90;;;;;;4971189;28;20113;-68
2024/04/01 03:16:05;;;;;;;;;;;9.50;99.90;;;;;;4976454;28;20260;-68
2024/04/01 03:18:31;;;;;;;2.35;1.00;;;9.50;99.90;;;;;;4977049;28;19976;-67
2024/04/01 03:20:57;;;;;;;3.03;0.90;;;9.50;99.90;;;;;;4974504;28;20022;-68
2024/04/01 03:23:23;;;;;;;3.35;1.10;;;9.50;99.90;;;;;;4975901;28;20022;-68
2024/04/01 03:25:52;;;;;;;3.80;1.20;;;9.40;99.90;;;;;;4976359;28;20109;-68
2024/04/01 03:28:18;;;;;;;4.85;1.10;;;9.30;99.90;;;;;;4975943;28;20030;-68
2024/04/01 03:30:45;;;;;;;3.85;1.17;;;9.20;99.90;;;;;;4977064;28;20034;-68
2024/04/01 03:33:12;;;;;;;2.80;0.93;;;9.10;99.90;;;;;;4973413;28;20011;-68
2024/04/01 03:35:39;;;;;;;4.60;1.10;;;9.10;99.90;;;;;;4977935;28;20058;-68
2024/04/01 03:38:04;;;;;;;2.65;1.00;;;9.10;99.90;;;;;;4977361;28;20066;-68
2024/04/01 03:40:30;;;;;;;2.35;1.00;;;9.20;99.90;;;;;;4977838;28;20061;-68
2024/04/01 03:42:58;;;;;;;2.75;1.00;;;9.20;99.90;;;;;;4978413;28;20038;-68
2024/04/01 03:45:23;;;;;;;2.33;1.05;;;9.20;99.90;;;;;;4976246;28;20027;-68
2024/04/01 03:47:51;;;;;;;2.35;1.00;;;9.10;99.90;;;;;;4989077;28;20025;-68
2024/04/01 03:50:17;;;;;;;5.30;1.20;;;9.20;99.90;;;;;;4972708;28;20046;-68
2024/04/01 03:52:45;;;;;;;3.28;1.20;;;9.20;99.90;;;;;;4978301;28;20022;-68
2024/04/01 03:55:10;;;;;;;2.67;1.05;;;9.10;99.90;;;;;;4977812;28;20019;-69
2024/04/01 03:57:37;;;;;;;5.88;1.30;;;9.10;99.90;;;;;;4977596;28;20132;-68
2024/04/01 04:00:03;;;;;;;2.63;0.90;;;9.10;99.90;;;;;;4978225;28;20104;-68
2024/04/01 04:02:29;;;;;;;3.22;1.20;;;9.10;99.90;;;;;;4977022;28;20027;-68
2024/04/01 04:04:55;;;;;;;4.35;1.20;;;9.00;99.90;;;;;;4971397;28;20038;-68
2024/04/01 04:07:20;;;;;;;2.75;1.10;;;9.00;99.90;;;;;;4970845;28;20030;-68
2024/04/01 04:09:46;;;;;;;4.00;1.10;;;9.00;99.90;;;;;;4968760;28;20119;-68
2024/04/01 04:12:12;;;;;;;3.83;1.10;;;8.90;99.90;;;;;;4962160;28;20050;-68
2024/04/01 04:14:39;;;;;;;4.65;1.20;;;8.90;99.90;;;;;;4972196;28;20019;-68
2024/04/01 04:17:05;;;;;;;2.85;1.13;;;8.80;99.90;;;;;;4971570;28;20496;-68
2024/04/01 04:19:33;;;;;;;3.78;1.42;;;8.80;99.90;;;;;;4968526;28;20039;-68
2024/04/01 04:21:58;;;;;;;2.97;1.20;;;8.70;99.90;;;;;;4971135;28;20023;-68
2024/04/01 04:24:25;;;;;;;4.25;1.17;;;8.70;99.90;;;;;;4972653;28;20034;-69
2024/04/01 04:26:52;;;;;;;3.03;1.23;;;8.70;99.90;;;;;;4964765;28;20109;-68
2024/04/01 04:29:17;;;;;;;4.40;1.20;;;8.90;99.90;;;;;;4968801;28;20066;-68
2024/04/01 04:31:54;;;;;;;3.50;1.13;;;8.80;99.90;;;;;;4969252;28;20073;-68
2024/04/01 04:34:21;;;;;;;3.95;1.25;;;8.80;99.90;;;;;;4972291;28;20370;-68
2024/04/01 04:36:49;;;;;;;6.00;1.48;;;8.70;99.90;;;;;;4976805;28;20025;-68
2024/04/01 04:39:24;;;;;;;3.97;1.40;;;8.80;99.90;;;;;;4974438;28;20122;-68
2024/04/01 04:41:52;;;;;;;4.68;1.40;;;8.80;99.90;;;;;;4971905;28;20022;-68
2024/04/01 04:44:19;;;;;;;4.70;1.40;;;8.80;99.90;;;;;;4973746;28;20038;-68
2024/04/01 04:46:45;;;;;;;4.00;1.40;;;8.80;99.90;;;;;;4974114;28;20394;-68
2024/04/01 04:49:11;;;;;;;7.00;1.58;;;8.80;99.90;;;;;;4977297;28;20031;-69
2024/04/01 04:51:37;;;;;;;4.60;1.30;;;8.80;99.90;;;;;;4971614;28;20487;-68
2024/04/01 04:54:04;;;;;;;3.92;1.30;;;8.80;99.90;;;;;;4972115;28;20019;-68
2024/04/01 04:56:30;;;;;;;4.13;1.50;;;8.90;99.90;;;;;;4979240;28;20053;-68
2024/04/01 04:58:55;;;;;;;3.25;1.17;;;8.90;99.90;;;;;;4974438;28;20031;-68
2024/04/01 05:01:21;;;;;;;4.18;1.33;;;9.00;99.90;;;;;;4973675;28;20062;-68
2024/04/01 05:03:47;;;;;;;5.30;1.40;;;9.00;99.90;;;;;;4975588;28;20113;-68
2024/04/01 05:06:15;;;;;;;6.10;1.70;;;9.00;99.90;;;;;;4976408;28;20034;-68
2024/04/01 05:08:41;;;;;;;4.07;1.50;;;9.10;99.90;;;;;;5026318;28;20493;-68
2024/04/01 05:11:12;;;;;;;4.68;1.50;;;9.00;99.90;;;;;;4973605;28;20030;-67
2024/04/01 05:13:37;;;;;;;5.30;1.50;;;9.10;99.90;;;;;;4976237;28;20023;-67
2024/04/01 05:16:05;;;;;;;5.40;1.40;;;9.10;99.90;;;;;;4973862;28;20043;-67
2024/04/01 05:18:31;;;;;;;4.63;1.52;;;9.00;99.90;;;;;;4973934;28;20039;-67
2024/04/01 05:20:57;;;;;;;6.97;1.35;;;9.10;99.90;;;;;;4974943;28;20026;-67
2024/04/01 05:23:23;;;;;;;5.18;1.42;;;9.00;99.90;;;;;;4973191;28;20482;-67
2024/04/01 05:25:49;;;;;;;6.50;1.80;;;8.90;99.90;;;;;;4975801;28;20041;-67
2024/04/01 05:28:15;;;;;;;8.32;1.70;;;9.00;99.90;;;;;;4976721;28;20029;-68
2024/04/01 05:30:41;;;;;;;6.22;1.80;;;9.00;99.90;;;;;;4975525;28;20105;-68
2024/04/01 05:33:06;;;;;;;5.38;1.60;;;9.00;99.90;;;;;;4980040;28;20452;-69
2024/04/01 05:35:37;;;;;;;4.80;1.73;;;9.00;99.90;;;;;;4979550;28;20023;-68
2024/04/01 05:38:03;;;;;;;5.10;1.73;;;9.10;99.90;;;;;;4975288;28;20367;-68
2024/04/01 05:40:36;;;;;;;5.25;1.80;;;9.00;99.90;;;;;;4973378;28;20091;-67
2024/04/01 05:43:02;;;;;;;7.50;2.17;;;9.00;99.90;;;;;;4968014;28;20030;-67
2024/04/01 05:45:27;;;;;;;6.30;1.83;;;9.00;99.90;;;;;;4967310;28;20035;-67
2024/04/01 05:47:54;;;;;;;5.95;1.85;;;9.00;99.90;;;;;;4963305;28;20084;-67
2024/04/01 05:50:22;;;;;;;5.88;1.90;;;8.90;99.90;;;;;;4965760;28;20035;-67
2024/04/01 05:52:48;;;;;;;6.43;2.00;;;9.00;99.90;;;;;;4966984;28;20053;-67
2024/04/01 05:55:14;;;;;;;8.13;1.92;;;8.90;99.90;;;;;;4965730;28;20460;-68
2024/04/01 05:57:39;;;;;;;8.93;1.63;;;8.90;99.90;;;;;;4976213;28;20023;-67
2024/04/01 06:00:06;;;;;;;5.22;1.90;;;9.00;99.90;;;;;;4973751;28;20031;-67
2024/04/01 06:02:32;;;;;;;7.63;1.77;;;9.00;99.90;;;;;;4968555;28;20042;-67
2024/04/01 06:04:58;;;;;;;5.88;1.88;;;9.00;99.90;;;;;;4967554;28;20026;-68
2024/04/01 06:07:26;;;;;;;7.55;2.22;;;8.90;99.90;;;;;;4968997;28;20034;-67
2024/04/01 06:09:54;;;;;;;5.72;1.80;;;8.90;99.90;;;;;;4969545;28;20027;-67
2024/04/01 06:12:19;;;;;;;9.85;2.20;;;8.90;99.90;;;;;;4968627;28;20054;-67
2024/04/01 06:14:45;;;;;;;8.35;1.95;;;8.90;99.90;;;;;;4965321;28;20069;-67
2024/04/01 06:17:11;;;;;;;6.78;1.88;;;8.90;99.90;;;;;;4970253;28;20031;-67
2024/04/01 06:19:37;;;;;;;8.48;2.38;;;8.90;99.90;;;;;;4974281;28;20034;-67
2024/04/01 06:22:05;;;;;;;7.05;2.03;;;8.90;99.90;;;;;;4969049;28;20034;-67
2024/04/01 06:24:31;;;;;;;6.57;2.03;;;8.90;99.90;;;;;;4969881;28;20390;-67
2024/04/01 06:26:57;;;;;;;5.22;1.73;;;8.90;99.90;;;;;;4965514;28;20030;-67
2024/04/01 06:29:22;;;;;;;8.40;2.20;;;9.00;99.90;;;;;;4968358;28;20027;-68
2024/04/01 06:31:48;;;;;;;8.98;2.13;;;9.00;99.90;;;;;;4970253;28;20026;-67
2024/04/01 06:34:13;;;;;;;10.27;3.33;;;9.10;99.90;;;;;;4971325;28;20053;-67
2024/04/01 06:36:41;;;;;;;6.65;2.65;;;9.10;99.90;;;;;;4980652;28;20484;-68
2024/04/01 06:39:10;;;;;;;7.63;2.20;;;9.10;99.90;;;;;;4970853;28;20027;-67
2024/04/01 06:41:36;;;;;;;6.22;2.30;;;9.20;99.90;;;;;;4972757;28;20081;-67
2024/04/01 06:44:02;;;;;;;7.45;2.40;;;9.20;99.90;;;;;;4974174;28;20046;-68
2024/04/01 06:46:27;;;;;;;5.90;2.10;;;9.30;99.90;;;;;;4974368;28;20035;-67
2024/04/01 06:48:53;;;;;;;8.88;2.05;;;9.20;99.90;;;;;;4974104;28;20045;-67
2024/04/01 06:51:18;;;;;;;9.38;2.22;;;9.20;99.90;;;;;;4989670;28;20011;-70
2024/04/01 06:53:44;;;;;;;7.75;2.20;;;9.10;99.90;;;;;;4970697;28;20030;-70
2024/04/01 06:56:10;;;;;;;6.68;2.35;;;9.20;99.90;;;;;;4974795;28;20026;-69
2024/04/01 06:58:36;;;;;;;10.75;2.30;;;9.20;99.90;;;;;;4981997;28;20030;-69
2024/04/01 07:01:03;;;;;;;8.18;2.30;;;9.20;99.90;;;;;;4969727;28;20102;-69
2024/04/01 07:03:29;;;;;;;5.45;2.00;;;9.20;99.90;;;;;;4974319;28;20284;-69
2024/04/01 07:05:55;;;;;;;7.32;2.45;;;9.20;99.90;;;;;;4970342;28;20046;-69
2024/04/01 07:08:20;;;;;;;5.10;1.90;;;9.20;99.90;;;;;;4971049;28;20031;-69
2024/04/01 07:10:46;;;;;;;9.73;2.33;;;9.30;99.90;;;;;;4980684;28;20496;-69
2024/04/01 07:13:12;;;;;;;6.90;2.47;;;9.30;99.90;;;;;;4974623;28;20031;-69
2024/04/01 07:15:38;;;;;;;7.03;2.10;;;9.30;99.90;;;;;;4967711;28;20038;-69
2024/04/01 07:18:06;;;;;;;6.57;2.30;;;9.30;99.90;;;;;;4971800;28;20553;-69
2024/04/01 07:20:32;;;;;;;6.82;2.35;;;9.40;99.90;;;;;;4971447;28;20109;-69
2024/04/01 07:22:57;;;;;;;7.28;2.60;;;9.40;99.90;;;;;;4973757;28;20134;-69
2024/04/01 07:25:23;;;;;;;10.07;2.72;;;9.50;99.90;;;;;;4973547;28;20081;-69
2024/04/01 07:27:49;;;;;;;8.00;2.60;;;9.60;99.90;;;;;;4970483;28;20439;-70
2024/04/01 07:30:15;;;;;;;7.55;2.63;;;9.60;99.90;;;;;;4971581;28;20470;-69
2024/04/01 07:32:41;;;;;;;7.97;2.58;;;9.60;99.90;;;;;;4977468;28;20050;-69
2024/04/01 07:35:06;;;;;;;8.02;2.80;;;9.70;99.90;;;;;;4972313;28;20468;-69
2024/04/01 07:37:32;;;;;;;8.63;2.85;;;9.70;99.90;;;;;;4982359;28;20019;-69
2024/04/01 07:39:58;;;;;;;6.97;2.45;;;9.70;99.90;;;;;;4968467;28;20488;-69
2024/04/01 07:42:24;;;;;;;6.45;2.25;;;9.70;99.90;;;;;;4972989;28;20042;-69
2024/04/01 07:44:51;;;;;;;7.57;2.35;;;9.70;99.90;;;;;;4972627;28;20031;-69
2024/04/01 07:47:17;;;;;;;8.57;2.75;;;9.80;99.90;;;;;;4973693;28;20035;-68
2024/04/01 07:49:42;;;;;;;6.88;2.50;;;9.90;99.90;;;;;;4974307;28;20039;-69
2024/04/01 07:52:09;;;;;;;6.10;2.20;;;9.90;99.90;;;;;;4973214;28;20038;-69
2024/04/01 07:54:37;;;;;;;7.45;2.00;;;10.00;99.90;;;;;;4971962;28;20097;-69
2024/04/01 07:57:03;;;;;;;5.95;1.88;;;10.20;99.90;;;;;;4968169;28;20356;-69
2024/04/01 07:59:33;;;;;;;5.85;2.00;;;10.30;99.90;;;;;;4973574;28;20037;-68
2024/04/01 08:02:03;;;;;;;6.43;1.92;;;10.30;99.90;;;;;;4973410;28;20034;-70
2024/04/01 08:04:29;;;;;;;5.20;1.70;;;10.30;99.90;;;;;;4978106;28;20030;-68
2024/04/01 08:06:55;;;;;;;5.53;1.42;;;10.40;99.90;;;;;;4975723;28;20393;-68
2024/04/01 08:09:22;;;;;;;4.40;1.60;;;10.50;99.90;;;;;;4978785;28;20035;-68
2024/04/01 08:11:49;;;;;;;6.72;1.60;;;10.50;99.90;;;;;;4975375;28;20087;-68
2024/04/01 08:14:18;;;;;;;5.70;1.80;;;10.50;99.90;;;;;;4982879;28;20031;-69
2024/04/01 08:16:43;;;;;;;4.60;1.70;;;10.40;99.90;;;;;;4977185;28;20386;-69
2024/04/01 08:19:09;;;;;;;4.85;1.90;;;10.40;99.90;;;;;;4973050;28;20042;-69
2024/04/01 08:21:36;;;;;;;5.90;1.80;;;10.50;99.90;;;;;;4975850;28;20476;-68
2024/04/01 08:24:01;;;;;;;6.43;1.80;;;10.50;99.90;;;;;;4981861;28;20026;-69
2024/04/01 08:26:27;;;;;;;5.45;1.90;;;10.60;99.90;;;;;;4971155;28;20035;-69
2024/04/01 08:28:53;;;;;;;5.55;1.88;;;10.60;99.90;;;;;;4975080;28;20027;-69
2024/04/01 08:31:18;;;;;;;5.20;1.92;;;10.60;99.90;;;;;;4980128;28;20609;-69
2024/04/01 08:33:44;;;;;;;6.70;2.30;;;10.50;99.90;;;;;;4975721;28;20031;-69
2024/04/01 08:36:10;;;;;;;7.85;2.20;;;10.50;99.90;;;;;;4988563;28;20022;-69
2024/04/01 08:38:36;;;;;;;6.40;1.92;;;10.50;99.90;;;;;;4973804;28;20023;-69
2024/04/01 08:41:29;;;;;;;6.55;2.30;;;10.40;99.90;;;;;;4975844;28;20022;-69
2024/04/01 08:44:14;;;;;;;6.80;2.42;;;10.30;99.90;;;;;;4969917;28;20073;-69
2024/04/01 08:46:42;;;;;;;7.88;2.38;;;10.30;99.90;;;;;;4984125;28;20035;-68
2024/04/01 08:49:13;;;;;;;7.40;2.30;;;10.40;99.90;;;;;;4976544;28;20034;-69
2024/04/01 08:51:42;;;;;;;6.13;2.38;;;10.40;99.90;;;;;;4974693;28;20466;-69
2024/04/01 08:54:11;;;;;;;351.33;92.65;;;10.30;99.90;;;;;;4976847;28;20055;-68
2024/04/01 08:56:39;;;;;;;12.02;5.35;;;10.30;99.90;;;;;;4987809;28;20046;-70
2024/04/01 08:59:09;;;;;;;7.25;2.60;;;10.30;99.90;;;;;;4975314;28;20042;-70
2024/04/01 09:01:35;;;;;;;14.13;4.63;;;10.30;99.90;;;;;;4972645;28;20513;-69
2024/04/01 09:04:01;;;;;;;7.60;2.85;;;10.30;99.90;;;;;;4974965;28;20065;-70
2024/04/01 09:06:28;;;;;;;8.55;3.15;;;10.30;99.90;;;;;;4972775;28;20168;-70
2024/04/01 09:08:54;;;;;;;13.07;2.80;;;10.30;99.90;;;;;;4972901;28;20366;-70
2024/04/01 09:11:25;;;;;;;8.00;2.97;;;10.30;99.90;;;;;;4973697;28;20079;-67
2024/04/01 09:13:50;;;;;;;;;;;10.30;99.90;;;;;;4973357;28;20068;-67
2024/04/01 09:16:24;;;;;;;7.10;2.90;;;10.30;99.90;;;;;;4977052;28;19974;-67
2024/04/01 09:18:52;;;;;;;5.70;2.03;;;10.30;99.90;;;;;;4974353;28;20054;-67
2024/04/01 09:21:22;;;;;;;5.68;1.95;;;10.20;99.90;;;;;;4973603;28;20034;-67
2024/04/01 09:23:48;;;;;;;9.67;4.10;;;10.20;99.90;;;;;;4976569;28;20033;-67
2024/04/01 09:26:16;;;;;;;9.35;3.78;;;10.10;99.90;;;;;;4973297;28;20035;-67
2024/04/01 09:28:42;;;;;;;9.05;4.40;;;10.00;99.90;;;;;;4970332;28;20038;-67
2024/04/01 09:31:09;;;;;;;7.43;3.22;;;10.00;99.90;;;;;;4974165;28;20038;-67
2024/04/01 09:33:35;;;;;;;7.88;2.85;;;10.00;99.90;;;;;;4978992;28;20019;-67
2024/04/01 09:36:02;;;;;;;8.77;3.47;;;10.00;99.90;;;;;;4975175;28;20022;-67
2024/04/01 09:38:28;;;;;;;6.45;2.50;;;10.10;99.90;;;;;;4977561;28;20042;-67
2024/04/01 09:40:57;;;;;;;7.90;3.45;;;10.00;99.90;;;;;;4974498;28;20354;-67
2024/04/01 09:43:25;;;;;;;9.07;4.43;;;10.00;99.90;;;;;;4969810;28;20023;-67
2024/04/01 09:45:52;;;;;;;11.52;5.07;;;10.00;99.90;;;;;;4972826;28;20031;-68
2024/04/01 09:48:22;;;;;;;7.22;3.17;;;10.00;99.90;;;;;;4975770;28;20045;-67
2024/04/01 09:50:50;;;;;;;12.27;5.32;;;10.10;99.90;;;;;;4969373;28;20111;-67
2024/04/01 09:53:16;;;;;;;11.13;5.55;;;10.10;99.90;;;;;;4977825;28;20124;-67
2024/04/01 09:56:19;;;;;;;11.88;5.40;;;10.00;99.90;;;;;;4976276;28;20113;-67
2024/04/01 09:59:03;;;;;;;12.40;6.10;;;10.00;99.90;;;;;;4969490;28;20027;-67
2024/04/01 10:02:06;;;;;;;13.70;6.68;;;10.00;99.90;;;;;;4971193;28;20122;-67
2024/04/01 10:04:56;;;;;;;13.75;6.40;;;10.00;99.90;;;;;;4986285;28;20033;-67
2024/04/01 10:07:40;;;;;;;11.98;4.95;;;10.00;99.90;;;;;;4961308;28;20035;-67
2024/04/01 10:10:21;;;;;;;14.80;6.53;;;9.90;99.90;;;;;;4972849;28;20029;-67
2024/04/01 10:13:02;;;;;;;15.13;7.35;;;9.90;99.90;;;;;;4972145;28;20030;-67
2024/04/01 10:15:56;;;;;;;15.35;6.72;;;9.90;99.90;;;;;;4970531;28;20031;-67
2024/04/01 10:18:27;;;;;;;17.75;8.02;;;9.90;99.90;;;;;;4971451;28;20054;-67
2024/04/01 10:21:24;;;;;;;16.85;7.18;;;10.00;99.90;;;;;;4974001;28;20113;-67
2024/04/01 10:24:15;;;;;;;14.80;6.43;;;9.90;99.90;;;;;;4971853;28;20034;-67
2024/04/01 10:26:46;;;;;;;12.60;5.45;;;9.90;99.90;;;;;;4968514;28;20133;-67
2024/04/01 10:29:41;;;;;;;16.85;7.50;;;9.80;99.90;;;;;;4987516;28;20497;-66
2024/04/01 10:32:22;;;;;;;15.88;7.63;;;9.90;99.90;;;;;;4978549;28;20129;-66
2024/04/01 10:35:08;;;;;;;15.18;6.35;;;9.90;99.90;;;;;;4970325;28;20027;-67
2024/04/01 10:37:53;;;;;;;13.32;6.43;;;10.10;99.90;;;;;;4965789;28;20091;-67
2024/04/01 10:40:47;;;;;;;13.43;6.18;;;10.20;99.90;;;;;;4968136;28;20084;-66
2024/04/01 10:43:24;;;;;;;14.23;6.68;;;10.20;99.90;;;;;;4978531;28;20023;-67
2024/04/01 10:45:59;;;;;;;13.10;6.32;;;10.10;99.90;;;;;;4972498;28;20053;-67
2024/04/01 10:48:29;;;;;;;13.75;7.22;;;10.10;99.90;;;;;;4971188;28;20084;-67
2024/04/01 10:51:09;;;;;;;14.60;6.90;;;10.00;99.90;;;;;;4972171;28;20085;-66
2024/04/01 10:53:58;;;;;;;13.45;5.63;;;9.90;99.90;;;;;;4970237;28;20520;-66
2024/04/01 10:56:53;;;;;;;17.00;5.55;;;9.90;99.90;;;;;;4979246;28;20027;-67
2024/04/01 10:59:56;;;;;;;15.93;6.50;;;9.80;99.90;;;;;;4972953;28;20030;-67
2024/04/01 11:02:59;;;;;;;15.80;6.85;;;9.90;99.90;;;;;;4964402;28;20074;-66
2024/04/01 11:05:46;;;;;;;18.08;7.70;;;9.90;99.90;;;;;;4973801;28;20034;-66
2024/04/01 11:08:30;;;;;;;19.17;10.02;;;9.90;99.90;;;;;;4973647;28;20480;-66
2024/04/01 11:11:09;;;;;;;20.02;8.32;;;9.90;99.90;;;;;;4968066;28;20035;-67
2024/04/01 11:13:37;;;;;;;19.30;10.20;;;9.90;99.90;;;;;;4969971;28;20042;-66
2024/04/01 11:16:08;;;;;;;20.70;10.73;;;10.00;99.90;;;;;;4972148;28;20031;-66
2024/04/01 11:19:01;;;;;;;22.23;11.82;;;10.00;99.90;;;;;;4972551;28;20059;-66
2024/04/01 11:21:42;;;;;;;16.92;9.82;;;10.10;99.90;;;;;;4989050;28;20035;-66
2024/04/01 11:24:17;;;;;;;17.38;9.02;;;10.10;99.90;;;;;;4974445;28;20847;-66
2024/04/01 11:26:54;;;;;;;20.05;10.68;;;10.10;99.90;;;;;;4971447;28;20026;-66
2024/04/01 11:29:51;;;;;;;19.38;11.13;;;10.10;99.90;;;;;;4973357;28;20062;-66
2024/04/01 11:32:17;;;;;;;21.50;10.65;;;10.10;99.90;;;;;;4971490;28;20022;-67
2024/04/01 11:35:04;;;;;;;24.13;11.85;;;10.10;99.90;;;;;;4975490;28;20537;-67
2024/04/01 11:38:02;;;;;;;22.60;11.48;;;10.10;99.90;;;;;;4972815;28;20490;-67
2024/04/01 11:40:33;;;;;;;18.20;9.00;;;10.10;99.90;;;;;;4971732;28;20046;-66
2024/04/01 11:43:05;;;;;;;22.15;10.20;;;10.10;99.90;;;;;;4982773;28;20031;-67
2024/04/01 11:45:36;;;;;;;23.83;11.25;;;10.10;99.90;;;;;;4978122;28;20027;-67
2024/04/01 11:48:03;;;;;;;23.45;12.48;;;10.10;99.90;;;;;;4983400;28;20037;-67
2024/04/01 11:50:28;;;;;;;19.63;8.55;;;10.10;99.90;;;;;;4974077;28;20035;-67
2024/04/01 11:52:58;;;;;;;22.65;11.88;;;10.10;99.90;;;;;;4990795;28;20023;-67
2024/04/01 11:55:25;;;;;;;14.00;6.95;;;10.10;99.90;;;;;;4975208;28;20077;-67
2024/04/01 11:57:51;;;;;;;19.27;11.50;;;10.00;99.90;;;;;;4969138;28;20378;-67
2024/04/01 12:00:17;;;;;;;15.88;8.00;;;9.90;99.90;;;;;;4976534;28;20114;-67
2024/04/01 12:02:56;;;;;;;17.60;8.30;;;9.90;99.90;;;;;;4973024;28;20061;-67
2024/04/01 12:05:22;;;;;;;21.15;10.95;;;9.90;99.90;;;;;;4975261;28;20443;-67
2024/04/01 12:07:50;;;;;;;18.52;9.23;;;9.80;99.90;;;;;;4973265;28;20027;-67
2024/04/01 12:10:17;;;;;;;19.15;7.93;;;9.90;99.90;;;;;;4977041;28;20039;-67
2024/04/01 12:12:46;;;;;;;18.65;9.35;;;10.00;99.90;;;;;;4976139;28;20030;-67
2024/04/01 12:15:16;;;;;;;11.82;5.25;;;10.10;99.90;;;;;;4972928;28;20027;-67
2024/04/01 12:17:42;;;;;;;17.23;7.97;;;10.10;99.90;;;;;;4974353;28;20057;-68
2024/04/01 12:20:08;;;;;;;16.17;7.80;;;10.00;99.90;;;;;;4966174;28;20081;-67
2024/04/01 12:22:35;;;;;;;21.42;8.45;;;9.90;99.90;;;;;;4975397;28;20492;-67
2024/04/01 12:25:01;;;;;;;19.73;9.27;;;9.90;99.90;;;;;;4972703;28;20031;-67
2024/04/01 12:27:32;;;;;;;15.38;8.00;;;10.00;99.90;;;;;;4977649;28;20022;-67
2024/04/01 12:30:00;;;;;;;19.40;9.27;;;9.90;99.90;;;;;;4975868;28;20034;-67
2024/04/01 12:32:39;;;;;;;18.08;9.55;;;9.90;99.90;;;;;;4976810;28;20034;-67
2024/04/01 12:35:04;;;;;;;17.08;8.73;;;10.00;99.90;;;;;;4979147;28;20105;-67
2024/04/01 12:37:30;;;;;;;17.40;8.77;;;10.00;99.90;;;;;;4980325;28;20110;-67
2024/04/01 12:40:02;;;;;;;19.98;10.05;;;10.00;99.90;;;;;;4973924;28;20470;-70
2024/04/01 12:42:27;;;;;;;17.77;8.23;;;10.10;99.90;;;;;;4979125;28;20037;-69
2024/04/01 12:44:53;;;;;;;20.73;9.93;;;10.10;99.90;;;;;;4980133;28;20109;-69
2024/04/01 12:47:20;;;;;;;20.67;10.23;;;10.20;99.90;;;;;;4974796;28;20041;-68
2024/04/01 12:49:46;;;;;;;20.70;10.93;;;10.30;99.90;;;;;;4970241;28;20023;-68
2024/04/01 12:52:20;;;;;;;19.98;9.63;;;10.50;99.90;;;;;;4980756;28;20046;-68
2024/04/01 12:55:02;;;;;;;21.08;10.82;;;10.60;99.90;;;;;;4966374;28;20084;-68
2024/04/01 12:57:46;;;;;;;18.80;10.10;;;10.70;99.90;;;;;;4965073;28;20492;-68